sensor_id;sensor_type;location;lat;lon;timestamp;P1;durP1;ratioP1;P2;durP2;ratioP2
2452;SDS011;63678;47.994;7.854;2023-12-20T00:00:27;3.60;;;1.70;;
2452;SDS011;63678;47.994;7.854;2023-12-20T00:02:59;3.30;;;1.40;;
2452;SDS011;63678;47.994;7.854;2023-12-20T00:05:32;3.78;;;1.60;;
2452;SDS011;63678;47.994;7.854;2023-12-20T00:08:05;4.43;;;1.70;;
2452;SDS011;63678;47.994;7.854;2023-12-20T00:10:37;3.60;;;1.42;;
2452;SDS011;63678;47.994;7.854;2023-12-20T00:13:10;4.13;;;1.60;;
2452;SDS011;63678;47.994;7.854;2023-12-20T00:15:42;4.35;;;1.60;;
2452;SDS011;63678;47.994;7.854;2023-12-20T00:18:15;4.07;;;1.70;;
2452;SDS011;63678;47.994;7.854;2023-12-20T00:20:47;3.40;;;1.70;;
2452;SDS011;63678;47.994;7.854;2023-12-20T00:23:19;3.50;;;1.73;;
2452;SDS011;63678;47.994;7.854;2023-12-20T00:25:51;4.13;;;1.67;;
2452;SDS011;63678;47.994;7.854;2023-12-20T00:28:24;3.65;;;1.83;;
2452;SDS011;63678;47.994;7.854;2023-12-20T00:30:56;3.80;;;1.90;;
2452;SDS011;63678;47.994;7.854;2023-12-20T00:33:28;3.95;;;2.00;;
2452;SDS011;63678;47.994;7.854;2023-12-20T00:36:01;3.83;;;1.90;;
2452;SDS011;63678;47.994;7.854;2023-12-20T00:38:34;3.57;;;1.87;;
2452;SDS011;63678;47.994;7.854;2023-12-20T00:41:06;3.78;;;1.50;;
2452;SDS011;63678;47.994;7.854;2023-12-20T00:43:38;3.60;;;1.75;;
2452;SDS011;63678;47.994;7.854;2023-12-20T00:46:10;4.43;;;1.80;;
2452;SDS011;63678;47.994;7.854;2023-12-20T00:48:43;3.58;;;1.90;;
2452;SDS011;63678;47.994;7.854;2023-12-20T00:51:17;3.77;;;1.83;;
2452;SDS011;63678;47.994;7.854;2023-12-20T00:53:50;4.05;;;2.00;;
2452;SDS011;63678;47.994;7.854;2023-12-20T00:56:26;3.55;;;1.98;;
2452;SDS011;63678;47.994;7.854;2023-12-20T00:58:59;3.53;;;1.92;;
2452;SDS011;63678;47.994;7.854;2023-12-20T01:01:31;3.58;;;1.85;;
2452;SDS011;63678;47.994;7.854;2023-12-20T01:04:05;4.43;;;1.67;;
2452;SDS011;63678;47.994;7.854;2023-12-20T01:06:37;4.00;;;1.65;;
2452;SDS011;63678;47.994;7.854;2023-12-20T01:09:10;5.03;;;2.00;;
2452;SDS011;63678;47.994;7.854;2023-12-20T01:11:47;3.67;;;2.10;;
2452;SDS011;63678;47.994;7.854;2023-12-20T01:14:18;3.80;;;2.13;;
2452;SDS011;63678;47.994;7.854;2023-12-20T01:16:52;3.50;;;2.00;;
2452;SDS011;63678;47.994;7.854;2023-12-20T01:19:24;4.05;;;2.20;;
2452;SDS011;63678;47.994;7.854;2023-12-20T01:21:58;3.50;;;1.60;;
2452;SDS011;63678;47.994;7.854;2023-12-20T01:24:31;4.43;;;1.60;;
2452;SDS011;63678;47.994;7.854;2023-12-20T01:27:03;3.95;;;1.88;;
2452;SDS011;63678;47.994;7.854;2023-12-20T01:29:36;3.50;;;1.70;;
2452;SDS011;63678;47.994;7.854;2023-12-20T01:32:08;3.38;;;1.67;;
2452;SDS011;63678;47.994;7.854;2023-12-20T01:34:41;3.88;;;2.00;;
2452;SDS011;63678;47.994;7.854;2023-12-20T01:37:14;3.05;;;1.30;;
2452;SDS011;63678;47.994;7.854;2023-12-20T01:39:46;3.38;;;1.77;;
2452;SDS011;63678;47.994;7.854;2023-12-20T01:42:20;3.77;;;2.07;;
2452;SDS011;63678;47.994;7.854;2023-12-20T01:44:53;3.83;;;2.00;;
2452;SDS011;63678;47.994;7.854;2023-12-20T01:47:25;3.53;;;1.80;;
2452;SDS011;63678;47.994;7.854;2023-12-20T01:49:59;3.92;;;1.92;;
2452;SDS011;63678;47.994;7.854;2023-12-20T01:52:31;4.68;;;2.08;;
2452;SDS011;63678;47.994;7.854;2023-12-20T01:55:05;3.57;;;1.50;;
2452;SDS011;63678;47.994;7.854;2023-12-20T01:57:45;2.88;;;1.40;;
2452;SDS011;63678;47.994;7.854;2023-12-20T02:00:19;3.10;;;1.55;;
2452;SDS011;63678;47.994;7.854;2023-12-20T02:02:56;3.58;;;1.95;;
2452;SDS011;63678;47.994;7.854;2023-12-20T02:05:34;3.70;;;1.85;;
2452;SDS011;63678;47.994;7.854;2023-12-20T02:08:08;3.77;;;1.47;;
2452;SDS011;63678;47.994;7.854;2023-12-20T02:10:40;3.38;;;1.70;;
2452;SDS011;63678;47.994;7.854;2023-12-20T02:13:14;3.00;;;1.33;;
2452;SDS011;63678;47.994;7.854;2023-12-20T02:15:47;3.33;;;1.88;;
2452;SDS011;63678;47.994;7.854;2023-12-20T02:18:19;3.38;;;1.45;;
2452;SDS011;63678;47.994;7.854;2023-12-20T02:20:52;4.97;;;1.17;;
2452;SDS011;63678;47.994;7.854;2023-12-20T02:23:25;3.15;;;1.33;;
2452;SDS011;63678;47.994;7.854;2023-12-20T02:25:57;2.80;;;1.30;;
2452;SDS011;63678;47.994;7.854;2023-12-20T02:28:30;3.10;;;1.40;;
2452;SDS011;63678;47.994;7.854;2023-12-20T02:31:24;3.03;;;1.40;;
2452;SDS011;63678;47.994;7.854;2023-12-20T02:33:57;3.37;;;1.47;;
2452;SDS011;63678;47.994;7.854;2023-12-20T02:36:29;3.10;;;1.48;;
2452;SDS011;63678;47.994;7.854;2023-12-20T02:39:02;3.97;;;1.60;;
2452;SDS011;63678;47.994;7.854;2023-12-20T02:41:34;3.20;;;1.40;;
2452;SDS011;63678;47.994;7.854;2023-12-20T02:44:06;4.07;;;1.60;;
2452;SDS011;63678;47.994;7.854;2023-12-20T02:46:39;3.80;;;1.77;;
2452;SDS011;63678;47.994;7.854;2023-12-20T02:49:11;4.07;;;1.60;;
2452;SDS011;63678;47.994;7.854;2023-12-20T02:51:44;3.60;;;1.63;;
2452;SDS011;63678;47.994;7.854;2023-12-20T02:54:16;3.75;;;2.08;;
2452;SDS011;63678;47.994;7.854;2023-12-20T02:56:49;3.92;;;1.80;;
2452;SDS011;63678;47.994;7.854;2023-12-20T02:59:21;3.53;;;1.90;;
2452;SDS011;63678;47.994;7.854;2023-12-20T03:01:54;3.58;;;2.08;;
2452;SDS011;63678;47.994;7.854;2023-12-20T03:04:26;4.38;;;1.80;;
2452;SDS011;63678;47.994;7.854;2023-12-20T03:06:59;3.40;;;1.80;;
2452;SDS011;63678;47.994;7.854;2023-12-20T03:09:31;3.67;;;1.90;;
2452;SDS011;63678;47.994;7.854;2023-12-20T03:12:24;3.87;;;1.90;;
2452;SDS011;63678;47.994;7.854;2023-12-20T03:14:56;3.92;;;2.20;;
2452;SDS011;63678;47.994;7.854;2023-12-20T03:17:29;3.53;;;1.95;;
2452;SDS011;63678;47.994;7.854;2023-12-20T03:20:02;3.70;;;1.90;;
2452;SDS011;63678;47.994;7.854;2023-12-20T03:22:35;3.45;;;1.75;;
2452;SDS011;63678;47.994;7.854;2023-12-20T03:25:07;3.57;;;2.00;;
2452;SDS011;63678;47.994;7.854;2023-12-20T03:27:40;4.70;;;1.60;;
2452;SDS011;63678;47.994;7.854;2023-12-20T03:30:13;3.40;;;1.70;;
2452;SDS011;63678;47.994;7.854;2023-12-20T03:32:46;3.47;;;1.80;;
2452;SDS011;63678;47.994;7.854;2023-12-20T03:35:19;3.78;;;1.90;;
2452;SDS011;63678;47.994;7.854;2023-12-20T03:37:53;4.20;;;1.80;;
2452;SDS011;63678;47.994;7.854;2023-12-20T03:40:25;4.88;;;1.90;;
2452;SDS011;63678;47.994;7.854;2023-12-20T03:42:57;3.90;;;1.88;;
2452;SDS011;63678;47.994;7.854;2023-12-20T03:45:30;3.45;;;1.77;;
2452;SDS011;63678;47.994;7.854;2023-12-20T03:48:23;3.50;;;1.88;;
2452;SDS011;63678;47.994;7.854;2023-12-20T03:50:56;4.90;;;1.70;;
2452;SDS011;63678;47.994;7.854;2023-12-20T03:53:29;3.22;;;1.50;;
2452;SDS011;63678;47.994;7.854;2023-12-20T03:56:01;3.10;;;1.40;;
2452;SDS011;63678;47.994;7.854;2023-12-20T03:58:33;3.78;;;2.00;;
2452;SDS011;63678;47.994;7.854;2023-12-20T04:01:09;3.20;;;1.67;;
2452;SDS011;63678;47.994;7.854;2023-12-20T04:03:45;3.67;;;1.80;;
2452;SDS011;63678;47.994;7.854;2023-12-20T04:06:17;3.10;;;1.67;;
2452;SDS011;63678;47.994;7.854;2023-12-20T04:08:50;3.60;;;1.75;;
2452;SDS011;63678;47.994;7.854;2023-12-20T04:11:22;3.88;;;1.65;;
2452;SDS011;63678;47.994;7.854;2023-12-20T04:13:55;3.35;;;1.70;;
2452;SDS011;63678;47.994;7.854;2023-12-20T04:16:27;3.23;;;1.50;;
2452;SDS011;63678;47.994;7.854;2023-12-20T04:18:59;3.50;;;1.40;;
2452;SDS011;63678;47.994;7.854;2023-12-20T04:21:32;2.90;;;1.25;;
2452;SDS011;63678;47.994;7.854;2023-12-20T04:24:05;3.08;;;1.25;;
2452;SDS011;63678;47.994;7.854;2023-12-20T04:26:37;3.65;;;1.83;;
2452;SDS011;63678;47.994;7.854;2023-12-20T04:29:09;3.07;;;1.53;;
2452;SDS011;63678;47.994;7.854;2023-12-20T04:31:41;3.00;;;1.25;;
2452;SDS011;63678;47.994;7.854;2023-12-20T04:34:13;3.00;;;1.52;;
2452;SDS011;63678;47.994;7.854;2023-12-20T04:39:25;3.00;;;1.45;;
2452;SDS011;63678;47.994;7.854;2023-12-20T04:41:59;2.90;;;1.30;;
2452;SDS011;63678;47.994;7.854;2023-12-20T04:44:34;3.10;;;1.55;;
2452;SDS011;63678;47.994;7.854;2023-12-20T04:47:06;3.10;;;1.30;;
2452;SDS011;63678;47.994;7.854;2023-12-20T04:49:38;2.80;;;1.30;;
2452;SDS011;63678;47.994;7.854;2023-12-20T04:52:11;2.88;;;1.20;;
2452;SDS011;63678;47.994;7.854;2023-12-20T04:54:43;3.40;;;1.70;;
2452;SDS011;63678;47.994;7.854;2023-12-20T04:57:15;2.90;;;1.40;;
2452;SDS011;63678;47.994;7.854;2023-12-20T04:59:48;3.28;;;1.70;;
2452;SDS011;63678;47.994;7.854;2023-12-20T05:02:20;3.03;;;1.40;;
2452;SDS011;63678;47.994;7.854;2023-12-20T05:04:52;3.10;;;1.38;;
2452;SDS011;63678;47.994;7.854;2023-12-20T05:07:26;3.10;;;1.70;;
2452;SDS011;63678;47.994;7.854;2023-12-20T05:09:59;3.30;;;1.85;;
2452;SDS011;63678;47.994;7.854;2023-12-20T05:12:31;3.25;;;1.63;;
2452;SDS011;63678;47.994;7.854;2023-12-20T05:15:04;3.40;;;1.50;;
2452;SDS011;63678;47.994;7.854;2023-12-20T05:17:38;4.63;;;2.13;;
2452;SDS011;63678;47.994;7.854;2023-12-20T05:20:10;4.10;;;1.73;;
2452;SDS011;63678;47.994;7.854;2023-12-20T05:22:42;3.20;;;1.52;;
2452;SDS011;63678;47.994;7.854;2023-12-20T05:25:16;3.20;;;1.60;;
2452;SDS011;63678;47.994;7.854;2023-12-20T05:27:48;3.15;;;1.67;;
2452;SDS011;63678;47.994;7.854;2023-12-20T05:30:20;3.60;;;1.77;;
2452;SDS011;63678;47.994;7.854;2023-12-20T05:32:53;3.97;;;2.00;;
2452;SDS011;63678;47.994;7.854;2023-12-20T05:35:26;4.07;;;1.50;;
2452;SDS011;63678;47.994;7.854;2023-12-20T05:37:59;4.28;;;1.70;;
2452;SDS011;63678;47.994;7.854;2023-12-20T05:40:31;3.45;;;1.83;;
2452;SDS011;63678;47.994;7.854;2023-12-20T05:43:03;3.40;;;2.00;;
2452;SDS011;63678;47.994;7.854;2023-12-20T05:45:36;3.90;;;1.80;;
2452;SDS011;63678;47.994;7.854;2023-12-20T05:48:08;3.38;;;1.70;;
2452;SDS011;63678;47.994;7.854;2023-12-20T05:50:41;3.72;;;1.90;;
2452;SDS011;63678;47.994;7.854;2023-12-20T05:53:14;3.45;;;1.80;;
2452;SDS011;63678;47.994;7.854;2023-12-20T05:55:46;3.20;;;1.80;;
2452;SDS011;63678;47.994;7.854;2023-12-20T05:58:18;3.73;;;1.50;;
2452;SDS011;63678;47.994;7.854;2023-12-20T06:00:50;3.58;;;1.83;;
2452;SDS011;63678;47.994;7.854;2023-12-20T06:03:23;3.30;;;1.80;;
2452;SDS011;63678;47.994;7.854;2023-12-20T06:05:55;4.82;;;1.92;;
2452;SDS011;63678;47.994;7.854;2023-12-20T06:08:43;3.20;;;1.52;;
2452;SDS011;63678;47.994;7.854;2023-12-20T06:11:16;3.40;;;1.90;;
2452;SDS011;63678;47.994;7.854;2023-12-20T06:13:48;4.72;;;2.22;;
2452;SDS011;63678;47.994;7.854;2023-12-20T06:16:23;3.38;;;1.88;;
2452;SDS011;63678;47.994;7.854;2023-12-20T06:18:55;3.63;;;2.00;;
2452;SDS011;63678;47.994;7.854;2023-12-20T06:21:28;4.13;;;1.83;;
2452;SDS011;63678;47.994;7.854;2023-12-20T06:24:00;3.90;;;2.00;;
2452;SDS011;63678;47.994;7.854;2023-12-20T06:26:33;4.32;;;1.70;;
2452;SDS011;63678;47.994;7.854;2023-12-20T06:29:05;3.92;;;1.83;;
2452;SDS011;63678;47.994;7.854;2023-12-20T06:31:38;4.90;;;2.58;;
2452;SDS011;63678;47.994;7.854;2023-12-20T06:34:10;3.85;;;2.17;;
2452;SDS011;63678;47.994;7.854;2023-12-20T06:36:42;3.83;;;1.77;;
2452;SDS011;63678;47.994;7.854;2023-12-20T06:39:15;4.03;;;1.90;;
2452;SDS011;63678;47.994;7.854;2023-12-20T06:41:47;4.57;;;1.92;;
2452;SDS011;63678;47.994;7.854;2023-12-20T06:44:19;4.38;;;2.00;;
2452;SDS011;63678;47.994;7.854;2023-12-20T06:46:52;3.70;;;1.80;;
2452;SDS011;63678;47.994;7.854;2023-12-20T06:49:25;3.20;;;1.83;;
2452;SDS011;63678;47.994;7.854;2023-12-20T06:51:57;3.20;;;1.77;;
2452;SDS011;63678;47.994;7.854;2023-12-20T06:54:29;3.50;;;1.80;;
2452;SDS011;63678;47.994;7.854;2023-12-20T06:57:01;3.55;;;1.90;;
2452;SDS011;63678;47.994;7.854;2023-12-20T06:59:37;5.60;;;2.22;;
2452;SDS011;63678;47.994;7.854;2023-12-20T07:02:11;3.97;;;1.93;;
2452;SDS011;63678;47.994;7.854;2023-12-20T07:04:46;5.20;;;2.10;;
2452;SDS011;63678;47.994;7.854;2023-12-20T07:07:18;3.88;;;1.90;;
2452;SDS011;63678;47.994;7.854;2023-12-20T07:09:50;5.38;;;2.28;;
2452;SDS011;63678;47.994;7.854;2023-12-20T07:12:23;5.60;;;2.10;;
2452;SDS011;63678;47.994;7.854;2023-12-20T07:14:55;3.93;;;1.80;;
2452;SDS011;63678;47.994;7.854;2023-12-20T07:17:32;4.30;;;2.00;;
2452;SDS011;63678;47.994;7.854;2023-12-20T07:23:49;3.78;;;1.67;;
2452;SDS011;63678;47.994;7.854;2023-12-20T07:26:52;4.50;;;2.10;;
2452;SDS011;63678;47.994;7.854;2023-12-20T07:29:25;4.00;;;2.43;;
2452;SDS011;63678;47.994;7.854;2023-12-20T07:31:57;5.03;;;2.10;;
2452;SDS011;63678;47.994;7.854;2023-12-20T07:34:30;4.90;;;1.80;;
2452;SDS011;63678;47.994;7.854;2023-12-20T07:37:05;3.40;;;1.60;;
2452;SDS011;63678;47.994;7.854;2023-12-20T07:39:39;3.50;;;1.70;;
2452;SDS011;63678;47.994;7.854;2023-12-20T07:42:12;4.37;;;2.20;;
2452;SDS011;63678;47.994;7.854;2023-12-20T07:44:44;4.75;;;1.70;;
2452;SDS011;63678;47.994;7.854;2023-12-20T07:47:17;5.30;;;2.40;;
2452;SDS011;63678;47.994;7.854;2023-12-20T07:49:53;9.38;;;2.20;;
2452;SDS011;63678;47.994;7.854;2023-12-20T07:52:25;4.43;;;2.10;;
2452;SDS011;63678;47.994;7.854;2023-12-20T07:54:58;6.83;;;2.70;;
2452;SDS011;63678;47.994;7.854;2023-12-20T07:57:30;5.78;;;1.80;;
2452;SDS011;63678;47.994;7.854;2023-12-20T08:00:02;4.30;;;1.95;;
2452;SDS011;63678;47.994;7.854;2023-12-20T08:02:35;4.35;;;2.33;;
2452;SDS011;63678;47.994;7.854;2023-12-20T08:05:07;4.15;;;2.38;;
2452;SDS011;63678;47.994;7.854;2023-12-20T08:07:40;5.40;;;1.97;;
2452;SDS011;63678;47.994;7.854;2023-12-20T08:10:12;3.78;;;2.30;;
2452;SDS011;63678;47.994;7.854;2023-12-20T08:12:45;3.45;;;2.10;;
2452;SDS011;63678;47.994;7.854;2023-12-20T08:15:17;3.50;;;2.00;;
2452;SDS011;63678;47.994;7.854;2023-12-20T08:17:49;4.85;;;2.22;;
2452;SDS011;63678;47.994;7.854;2023-12-20T08:20:22;4.73;;;2.13;;
2452;SDS011;63678;47.994;7.854;2023-12-20T08:23:10;5.38;;;2.20;;
2452;SDS011;63678;47.994;7.854;2023-12-20T08:25:42;4.32;;;2.60;;
2452;SDS011;63678;47.994;7.854;2023-12-20T08:28:15;4.80;;;2.70;;
2452;SDS011;63678;47.994;7.854;2023-12-20T08:30:47;3.63;;;2.00;;
2452;SDS011;63678;47.994;7.854;2023-12-20T08:33:20;4.30;;;2.43;;
2452;SDS011;63678;47.994;7.854;2023-12-20T08:35:52;6.10;;;2.20;;
2452;SDS011;63678;47.994;7.854;2023-12-20T08:38:24;4.57;;;2.50;;
2452;SDS011;63678;47.994;7.854;2023-12-20T08:40:56;4.40;;;2.13;;
2452;SDS011;63678;47.994;7.854;2023-12-20T08:43:29;4.38;;;2.17;;
2452;SDS011;63678;47.994;7.854;2023-12-20T08:46:01;4.20;;;2.13;;
2452;SDS011;63678;47.994;7.854;2023-12-20T08:48:34;4.30;;;2.58;;
2452;SDS011;63678;47.994;7.854;2023-12-20T08:51:07;4.10;;;2.53;;
2452;SDS011;63678;47.994;7.854;2023-12-20T08:53:40;4.65;;;2.20;;
2452;SDS011;63678;47.994;7.854;2023-12-20T08:56:13;5.10;;;2.30;;
2452;SDS011;63678;47.994;7.854;2023-12-20T08:58:46;3.67;;;1.90;;
2452;SDS011;63678;47.994;7.854;2023-12-20T09:01:19;5.07;;;2.40;;
2452;SDS011;63678;47.994;7.854;2023-12-20T09:03:51;4.53;;;2.58;;
2452;SDS011;63678;47.994;7.854;2023-12-20T09:06:23;5.60;;;2.85;;
2452;SDS011;63678;47.994;7.854;2023-12-20T09:08:56;5.13;;;2.63;;
2452;SDS011;63678;47.994;7.854;2023-12-20T09:11:28;14.40;;;6.83;;
2452;SDS011;63678;47.994;7.854;2023-12-20T09:14:01;6.75;;;3.45;;
2452;SDS011;63678;47.994;7.854;2023-12-20T09:16:35;4.68;;;2.45;;
2452;SDS011;63678;47.994;7.854;2023-12-20T09:19:07;6.18;;;3.08;;
2452;SDS011;63678;47.994;7.854;2023-12-20T09:21:39;5.45;;;2.88;;
2452;SDS011;63678;47.994;7.854;2023-12-20T09:24:12;6.00;;;3.43;;
2452;SDS011;63678;47.994;7.854;2023-12-20T09:26:45;6.05;;;3.13;;
2452;SDS011;63678;47.994;7.854;2023-12-20T09:29:17;5.20;;;2.97;;
2452;SDS011;63678;47.994;7.854;2023-12-20T09:31:50;5.85;;;3.20;;
2452;SDS011;63678;47.994;7.854;2023-12-20T09:34:23;4.97;;;2.80;;
2452;SDS011;63678;47.994;7.854;2023-12-20T09:36:57;6.07;;;2.87;;
2452;SDS011;63678;47.994;7.854;2023-12-20T09:39:29;6.80;;;3.22;;
2452;SDS011;63678;47.994;7.854;2023-12-20T09:42:03;6.28;;;3.85;;
2452;SDS011;63678;47.994;7.854;2023-12-20T09:44:37;5.93;;;3.22;;
2452;SDS011;63678;47.994;7.854;2023-12-20T09:47:12;6.32;;;3.05;;
2452;SDS011;63678;47.994;7.854;2023-12-20T09:49:47;5.80;;;3.70;;
2452;SDS011;63678;47.994;7.854;2023-12-20T09:52:20;7.07;;;3.30;;
2452;SDS011;63678;47.994;7.854;2023-12-20T09:54:55;7.05;;;3.30;;
2452;SDS011;63678;47.994;7.854;2023-12-20T09:57:28;7.05;;;3.78;;
2452;SDS011;63678;47.994;7.854;2023-12-20T10:00:02;7.93;;;3.33;;
2452;SDS011;63678;47.994;7.854;2023-12-20T10:02:45;6.50;;;3.53;;
2452;SDS011;63678;47.994;7.854;2023-12-20T10:05:26;7.22;;;3.30;;
2452;SDS011;63678;47.994;7.854;2023-12-20T10:08:02;6.65;;;3.50;;
2452;SDS011;63678;47.994;7.854;2023-12-20T10:10:35;6.38;;;3.60;;
2452;SDS011;63678;47.994;7.854;2023-12-20T10:13:18;7.18;;;3.92;;
2452;SDS011;63678;47.994;7.854;2023-12-20T10:15:50;6.20;;;3.60;;
2452;SDS011;63678;47.994;7.854;2023-12-20T10:18:23;6.55;;;3.50;;
2452;SDS011;63678;47.994;7.854;2023-12-20T10:21:09;7.18;;;3.70;;
2452;SDS011;63678;47.994;7.854;2023-12-20T10:23:43;7.15;;;3.78;;
2452;SDS011;63678;47.994;7.854;2023-12-20T10:26:22;7.05;;;3.40;;
2452;SDS011;63678;47.994;7.854;2023-12-20T10:29:00;7.67;;;3.67;;
2452;SDS011;63678;47.994;7.854;2023-12-20T10:31:33;9.88;;;3.28;;
2452;SDS011;63678;47.994;7.854;2023-12-20T10:34:06;7.50;;;3.88;;
2452;SDS011;63678;47.994;7.854;2023-12-20T10:36:38;8.57;;;3.50;;
2452;SDS011;63678;47.994;7.854;2023-12-20T10:39:11;7.72;;;4.05;;
2452;SDS011;63678;47.994;7.854;2023-12-20T10:41:46;6.67;;;3.63;;
2452;SDS011;63678;47.994;7.854;2023-12-20T10:44:20;8.27;;;3.35;;
2452;SDS011;63678;47.994;7.854;2023-12-20T10:46:52;7.28;;;3.22;;
2452;SDS011;63678;47.994;7.854;2023-12-20T10:49:30;6.40;;;2.97;;
2452;SDS011;63678;47.994;7.854;2023-12-20T10:52:03;6.32;;;3.05;;
2452;SDS011;63678;47.994;7.854;2023-12-20T10:54:39;8.30;;;3.90;;
2452;SDS011;63678;47.994;7.854;2023-12-20T10:57:12;6.72;;;3.70;;
2452;SDS011;63678;47.994;7.854;2023-12-20T10:59:45;9.73;;;3.92;;
2452;SDS011;63678;47.994;7.854;2023-12-20T11:02:21;6.25;;;3.42;;
2452;SDS011;63678;47.994;7.854;2023-12-20T11:05:06;7.32;;;3.65;;
2452;SDS011;63678;47.994;7.854;2023-12-20T11:07:50;8.60;;;3.90;;
2452;SDS011;63678;47.994;7.854;2023-12-20T11:10:41;6.65;;;2.85;;
2452;SDS011;63678;47.994;7.854;2023-12-20T11:13:25;8.00;;;3.67;;
2452;SDS011;63678;47.994;7.854;2023-12-20T11:16:04;8.90;;;4.30;;
2452;SDS011;63678;47.994;7.854;2023-12-20T11:18:50;10.60;;;3.75;;
2452;SDS011;63678;47.994;7.854;2023-12-20T11:21:24;12.10;;;4.13;;
2452;SDS011;63678;47.994;7.854;2023-12-20T11:23:57;5.70;;;3.15;;
2452;SDS011;63678;47.994;7.854;2023-12-20T11:26:30;8.00;;;3.70;;
2452;SDS011;63678;47.994;7.854;2023-12-20T11:32:27;6.57;;;3.30;;
2452;SDS011;63678;47.994;7.854;2023-12-20T11:35:16;8.85;;;3.40;;
2452;SDS011;63678;47.994;7.854;2023-12-20T11:37:55;9.38;;;3.95;;
2452;SDS011;63678;47.994;7.854;2023-12-20T11:40:29;7.22;;;3.78;;
2452;SDS011;63678;47.994;7.854;2023-12-20T11:43:07;6.55;;;2.85;;
2452;SDS011;63678;47.994;7.854;2023-12-20T11:45:47;8.65;;;3.08;;
2452;SDS011;63678;47.994;7.854;2023-12-20T11:48:23;5.30;;;2.65;;
2452;SDS011;63678;47.994;7.854;2023-12-20T11:50:55;7.72;;;3.08;;
2452;SDS011;63678;47.994;7.854;2023-12-20T11:53:28;8.30;;;3.22;;
2452;SDS011;63678;47.994;7.854;2023-12-20T11:56:00;7.22;;;2.80;;
2452;SDS011;63678;47.994;7.854;2023-12-20T11:58:34;8.43;;;2.50;;
2452;SDS011;63678;47.994;7.854;2023-12-20T12:01:09;6.75;;;3.10;;
2452;SDS011;63678;47.994;7.854;2023-12-20T12:03:45;6.00;;;2.58;;
2452;SDS011;63678;47.994;7.854;2023-12-20T12:06:18;8.90;;;2.65;;
2452;SDS011;63678;47.994;7.854;2023-12-20T12:08:50;7.78;;;2.72;;
2452;SDS011;63678;47.994;7.854;2023-12-20T12:11:23;8.10;;;2.33;;
2452;SDS011;63678;47.994;7.854;2023-12-20T12:13:56;6.95;;;2.30;;
2452;SDS011;63678;47.994;7.854;2023-12-20T12:16:28;6.63;;;2.40;;
2452;SDS011;63678;47.994;7.854;2023-12-20T12:19:02;11.98;;;3.17;;
2452;SDS011;63678;47.994;7.854;2023-12-20T12:21:35;10.00;;;2.63;;
2452;SDS011;63678;47.994;7.854;2023-12-20T12:24:08;7.05;;;2.47;;
2452;SDS011;63678;47.994;7.854;2023-12-20T12:26:49;7.63;;;2.30;;
2452;SDS011;63678;47.994;7.854;2023-12-20T12:29:23;8.38;;;2.60;;
2452;SDS011;63678;47.994;7.854;2023-12-20T12:31:56;5.63;;;2.50;;
2452;SDS011;63678;47.994;7.854;2023-12-20T12:34:30;6.95;;;2.42;;
2452;SDS011;63678;47.994;7.854;2023-12-20T12:37:05;9.07;;;2.60;;
2452;SDS011;63678;47.994;7.854;2023-12-20T12:39:38;7.15;;;2.35;;
2452;SDS011;63678;47.994;7.854;2023-12-20T12:42:12;7.95;;;2.28;;
2452;SDS011;63678;47.994;7.854;2023-12-20T12:44:44;13.02;;;2.63;;
2452;SDS011;63678;47.994;7.854;2023-12-20T12:47:16;8.75;;;2.80;;
2452;SDS011;63678;47.994;7.854;2023-12-20T12:50:04;9.13;;;2.60;;
2452;SDS011;63678;47.994;7.854;2023-12-20T12:52:37;7.00;;;2.20;;
2452;SDS011;63678;47.994;7.854;2023-12-20T12:55:10;7.93;;;2.50;;
2452;SDS011;63678;47.994;7.854;2023-12-20T12:57:42;9.13;;;2.20;;
2452;SDS011;63678;47.994;7.854;2023-12-20T13:00:15;9.00;;;2.67;;
2452;SDS011;63678;47.994;7.854;2023-12-20T13:03:06;9.75;;;2.30;;
2452;SDS011;63678;47.994;7.854;2023-12-20T13:05:39;7.47;;;2.33;;
2452;SDS011;63678;47.994;7.854;2023-12-20T13:08:15;6.57;;;2.70;;
2452;SDS011;63678;47.994;7.854;2023-12-20T13:10:48;8.60;;;2.22;;
2452;SDS011;63678;47.994;7.854;2023-12-20T13:13:21;7.93;;;1.55;;
2452;SDS011;63678;47.994;7.854;2023-12-20T13:15:53;6.60;;;2.35;;
2452;SDS011;63678;47.994;7.854;2023-12-20T13:18:26;5.13;;;2.00;;
2452;SDS011;63678;47.994;7.854;2023-12-20T13:20:59;5.75;;;2.13;;
2452;SDS011;63678;47.994;7.854;2023-12-20T13:23:31;7.57;;;2.47;;
2452;SDS011;63678;47.994;7.854;2023-12-20T13:26:03;6.38;;;2.35;;
2452;SDS011;63678;47.994;7.854;2023-12-20T13:28:37;8.02;;;2.33;;
2452;SDS011;63678;47.994;7.854;2023-12-20T13:31:10;7.23;;;2.20;;
2452;SDS011;63678;47.994;7.854;2023-12-20T13:33:43;8.88;;;2.40;;
2452;SDS011;63678;47.994;7.854;2023-12-20T13:36:15;7.82;;;2.47;;
2452;SDS011;63678;47.994;7.854;2023-12-20T13:38:48;9.10;;;2.78;;
2452;SDS011;63678;47.994;7.854;2023-12-20T13:41:20;9.18;;;2.22;;
2452;SDS011;63678;47.994;7.854;2023-12-20T13:43:53;7.17;;;2.50;;
2452;SDS011;63678;47.994;7.854;2023-12-20T13:46:25;8.23;;;2.72;;
2452;SDS011;63678;47.994;7.854;2023-12-20T13:48:59;8.20;;;2.38;;
2452;SDS011;63678;47.994;7.854;2023-12-20T13:51:31;8.00;;;2.63;;
2452;SDS011;63678;47.994;7.854;2023-12-20T13:54:04;6.43;;;2.30;;
2452;SDS011;63678;47.994;7.854;2023-12-20T13:56:36;7.27;;;2.50;;
2452;SDS011;63678;47.994;7.854;2023-12-20T13:59:23;6.55;;;2.80;;
2452;SDS011;63678;47.994;7.854;2023-12-20T14:01:55;8.95;;;2.70;;
2452;SDS011;63678;47.994;7.854;2023-12-20T14:04:29;8.50;;;2.50;;
2452;SDS011;63678;47.994;7.854;2023-12-20T14:07:13;10.88;;;3.03;;
2452;SDS011;63678;47.994;7.854;2023-12-20T14:09:46;6.90;;;2.63;;
2452;SDS011;63678;47.994;7.854;2023-12-20T14:12:19;7.55;;;3.13;;
2452;SDS011;63678;47.994;7.854;2023-12-20T14:14:51;8.82;;;3.55;;
2452;SDS011;63678;47.994;7.854;2023-12-20T14:17:24;7.80;;;2.63;;
2452;SDS011;63678;47.994;7.854;2023-12-20T14:19:56;8.10;;;2.50;;
2452;SDS011;63678;47.994;7.854;2023-12-20T14:22:29;8.10;;;2.87;;
2452;SDS011;63678;47.994;7.854;2023-12-20T14:25:02;8.38;;;2.50;;
2452;SDS011;63678;47.994;7.854;2023-12-20T14:27:35;8.63;;;3.17;;
2452;SDS011;63678;47.994;7.854;2023-12-20T14:30:07;9.63;;;3.22;;
2452;SDS011;63678;47.994;7.854;2023-12-20T14:32:40;10.48;;;3.78;;
2452;SDS011;63678;47.994;7.854;2023-12-20T14:35:12;7.27;;;3.07;;
2452;SDS011;63678;47.994;7.854;2023-12-20T14:37:45;6.07;;;2.55;;
2452;SDS011;63678;47.994;7.854;2023-12-20T14:40:18;6.25;;;2.67;;
2452;SDS011;63678;47.994;7.854;2023-12-20T14:42:51;10.35;;;2.95;;
2452;SDS011;63678;47.994;7.854;2023-12-20T14:45:24;9.00;;;3.00;;
2452;SDS011;63678;47.994;7.854;2023-12-20T14:47:57;5.17;;;2.40;;
2452;SDS011;63678;47.994;7.854;2023-12-20T14:50:30;9.07;;;2.50;;
2452;SDS011;63678;47.994;7.854;2023-12-20T14:53:03;10.40;;;3.38;;
2452;SDS011;63678;47.994;7.854;2023-12-20T14:55:36;6.25;;;2.47;;
2452;SDS011;63678;47.994;7.854;2023-12-20T14:58:08;8.50;;;2.80;;
2452;SDS011;63678;47.994;7.854;2023-12-20T15:00:40;6.97;;;2.13;;
2452;SDS011;63678;47.994;7.854;2023-12-20T15:03:14;8.25;;;2.42;;
2452;SDS011;63678;47.994;7.854;2023-12-20T15:05:48;7.60;;;2.50;;
2452;SDS011;63678;47.994;7.854;2023-12-20T15:08:21;9.73;;;2.53;;
2452;SDS011;63678;47.994;7.854;2023-12-20T15:10:53;7.78;;;2.22;;
2452;SDS011;63678;47.994;7.854;2023-12-20T15:13:26;10.13;;;2.90;;
2452;SDS011;63678;47.994;7.854;2023-12-20T15:15:59;6.78;;;2.40;;
2452;SDS011;63678;47.994;7.854;2023-12-20T15:18:31;5.80;;;2.38;;
2452;SDS011;63678;47.994;7.854;2023-12-20T15:21:03;8.05;;;2.63;;
2452;SDS011;63678;47.994;7.854;2023-12-20T15:23:37;6.72;;;2.75;;
2452;SDS011;63678;47.994;7.854;2023-12-20T15:26:09;7.00;;;2.77;;
2452;SDS011;63678;47.994;7.854;2023-12-20T15:28:42;8.15;;;2.60;;
2452;SDS011;63678;47.994;7.854;2023-12-20T15:31:15;12.68;;;3.40;;
2452;SDS011;63678;47.994;7.854;2023-12-20T15:33:48;9.48;;;3.22;;
2452;SDS011;63678;47.994;7.854;2023-12-20T15:36:21;9.73;;;2.88;;
2452;SDS011;63678;47.994;7.854;2023-12-20T15:38:53;8.23;;;2.97;;
2452;SDS011;63678;47.994;7.854;2023-12-20T15:41:26;11.77;;;3.22;;
2452;SDS011;63678;47.994;7.854;2023-12-20T15:43:58;8.35;;;3.28;;
2452;SDS011;63678;47.994;7.854;2023-12-20T15:46:31;8.68;;;3.60;;
2452;SDS011;63678;47.994;7.854;2023-12-20T15:49:04;11.27;;;2.72;;